sensor_id;sensor_type;location;lat;lon;timestamp;P1;durP1;ratioP1;P2;durP2;ratioP2
71947;SDS011;63257;55.082;38.772;2024-02-15T00:00:11;13.02;;;3.65;;
71947;SDS011;63257;55.082;38.772;2024-02-15T00:02:37;9.43;;;3.80;;
71947;SDS011;63257;55.082;38.772;2024-02-15T00:05:03;10.67;;;3.43;;
71947;SDS011;63257;55.082;38.772;2024-02-15T00:07:30;8.27;;;3.67;;
71947;SDS011;63257;55.082;38.772;2024-02-15T00:09:55;11.27;;;3.30;;
71947;SDS011;63257;55.082;38.772;2024-02-15T00:12:21;9.63;;;3.47;;
71947;SDS011;63257;55.082;38.772;2024-02-15T00:14:47;10.82;;;3.10;;
71947;SDS011;63257;55.082;38.772;2024-02-15T00:17:13;8.47;;;3.43;;
71947;SDS011;63257;55.082;38.772;2024-02-15T00:19:39;9.65;;;3.75;;
71947;SDS011;63257;55.082;38.772;2024-02-15T00:22:06;12.23;;;3.70;;
71947;SDS011;63257;55.082;38.772;2024-02-15T00:24:32;12.10;;;3.93;;
71947;SDS011;63257;55.082;38.772;2024-02-15T00:26:58;11.00;;;3.25;;
71947;SDS011;63257;55.082;38.772;2024-02-15T00:29:24;13.13;;;4.03;;
71947;SDS011;63257;55.082;38.772;2024-02-15T00:31:53;7.47;;;3.07;;
71947;SDS011;63257;55.082;38.772;2024-02-15T00:34:20;12.50;;;4.00;;
71947;SDS011;63257;55.082;38.772;2024-02-15T00:36:46;11.15;;;3.10;;
71947;SDS011;63257;55.082;38.772;2024-02-15T00:39:12;11.23;;;3.83;;
71947;SDS011;63257;55.082;38.772;2024-02-15T00:41:44;10.93;;;3.90;;
71947;SDS011;63257;55.082;38.772;2024-02-15T00:44:11;10.65;;;3.63;;
71947;SDS011;63257;55.082;38.772;2024-02-15T00:46:37;8.63;;;3.75;;
71947;SDS011;63257;55.082;38.772;2024-02-15T00:49:04;10.82;;;3.60;;
71947;SDS011;63257;55.082;38.772;2024-02-15T00:51:32;7.90;;;3.30;;
71947;SDS011;63257;55.082;38.772;2024-02-15T00:54:02;10.30;;;3.20;;
71947;SDS011;63257;55.082;38.772;2024-02-15T00:56:29;8.77;;;3.63;;
71947;SDS011;63257;55.082;38.772;2024-02-15T00:58:59;8.80;;;3.33;;
71947;SDS011;63257;55.082;38.772;2024-02-15T01:01:27;10.60;;;3.87;;
71947;SDS011;63257;55.082;38.772;2024-02-15T01:03:53;11.30;;;3.72;;
71947;SDS011;63257;55.082;38.772;2024-02-15T01:06:19;8.98;;;3.47;;
71947;SDS011;63257;55.082;38.772;2024-02-15T01:08:44;8.63;;;3.10;;
71947;SDS011;63257;55.082;38.772;2024-02-15T01:11:10;9.25;;;3.67;;
71947;SDS011;63257;55.082;38.772;2024-02-15T01:13:36;12.45;;;3.58;;
71947;SDS011;63257;55.082;38.772;2024-02-15T01:16:03;9.95;;;3.22;;
71947;SDS011;63257;55.082;38.772;2024-02-15T01:18:30;13.63;;;4.00;;
71947;SDS011;63257;55.082;38.772;2024-02-15T01:20:57;9.45;;;3.90;;
71947;SDS011;63257;55.082;38.772;2024-02-15T01:23:24;12.25;;;3.85;;
71947;SDS011;63257;55.082;38.772;2024-02-15T01:25:51;9.93;;;3.85;;
71947;SDS011;63257;55.082;38.772;2024-02-15T01:28:18;15.83;;;3.97;;
71947;SDS011;63257;55.082;38.772;2024-02-15T01:30:45;8.27;;;3.60;;
71947;SDS011;63257;55.082;38.772;2024-02-15T01:33:12;9.20;;;3.17;;
71947;SDS011;63257;55.082;38.772;2024-02-15T01:35:38;9.43;;;3.50;;
71947;SDS011;63257;55.082;38.772;2024-02-15T01:38:07;11.02;;;3.58;;
71947;SDS011;63257;55.082;38.772;2024-02-15T01:40:33;10.18;;;3.90;;
71947;SDS011;63257;55.082;38.772;2024-02-15T01:42:59;9.47;;;3.57;;
71947;SDS011;63257;55.082;38.772;2024-02-15T01:45:25;10.77;;;3.67;;
71947;SDS011;63257;55.082;38.772;2024-02-15T01:47:53;11.10;;;3.58;;
71947;SDS011;63257;55.082;38.772;2024-02-15T01:50:19;11.55;;;3.85;;
71947;SDS011;63257;55.082;38.772;2024-02-15T01:52:47;9.73;;;3.53;;
71947;SDS011;63257;55.082;38.772;2024-02-15T01:55:15;10.35;;;3.83;;
71947;SDS011;63257;55.082;38.772;2024-02-15T01:57:44;11.03;;;3.77;;
71947;SDS011;63257;55.082;38.772;2024-02-15T02:00:11;8.65;;;3.85;;
71947;SDS011;63257;55.082;38.772;2024-02-15T02:02:50;13.18;;;3.65;;
71947;SDS011;63257;55.082;38.772;2024-02-15T02:05:19;11.57;;;4.03;;
71947;SDS011;63257;55.082;38.772;2024-02-15T02:07:45;9.02;;;3.45;;
71947;SDS011;63257;55.082;38.772;2024-02-15T02:10:11;10.85;;;3.67;;
71947;SDS011;63257;55.082;38.772;2024-02-15T02:12:41;12.85;;;4.28;;
71947;SDS011;63257;55.082;38.772;2024-02-15T02:15:07;13.50;;;4.60;;
71947;SDS011;63257;55.082;38.772;2024-02-15T02:17:34;9.63;;;3.70;;
71947;SDS011;63257;55.082;38.772;2024-02-15T02:20:01;9.93;;;3.35;;
71947;SDS011;63257;55.082;38.772;2024-02-15T02:22:34;9.53;;;3.80;;
71947;SDS011;63257;55.082;38.772;2024-02-15T02:27:35;6.70;;;3.05;;
71947;SDS011;63257;55.082;38.772;2024-02-15T02:30:04;10.73;;;3.83;;
71947;SDS011;63257;55.082;38.772;2024-02-15T02:35:25;7.60;;;2.97;;
71947;SDS011;63257;55.082;38.772;2024-02-15T02:37:52;10.63;;;3.33;;
71947;SDS011;63257;55.082;38.772;2024-02-15T02:40:19;10.35;;;3.78;;
71947;SDS011;63257;55.082;38.772;2024-02-15T02:42:48;12.35;;;4.40;;
71947;SDS011;63257;55.082;38.772;2024-02-15T02:45:15;13.25;;;3.88;;
71947;SDS011;63257;55.082;38.772;2024-02-15T02:47:41;8.25;;;2.95;;
71947;SDS011;63257;55.082;38.772;2024-02-15T02:50:07;10.90;;;3.90;;
71947;SDS011;63257;55.082;38.772;2024-02-15T02:52:34;11.83;;;3.77;;
71947;SDS011;63257;55.082;38.772;2024-02-15T02:55:00;11.23;;;3.95;;
71947;SDS011;63257;55.082;38.772;2024-02-15T02:57:28;10.95;;;3.80;;
71947;SDS011;63257;55.082;38.772;2024-02-15T02:59:54;11.00;;;3.27;;
71947;SDS011;63257;55.082;38.772;2024-02-15T03:02:20;12.30;;;3.85;;
71947;SDS011;63257;55.082;38.772;2024-02-15T03:04:48;15.17;;;4.77;;
71947;SDS011;63257;55.082;38.772;2024-02-15T03:07:14;10.02;;;3.58;;
71947;SDS011;63257;55.082;38.772;2024-02-15T03:09:44;11.55;;;3.97;;
71947;SDS011;63257;55.082;38.772;2024-02-15T03:12:10;10.67;;;3.83;;
71947;SDS011;63257;55.082;38.772;2024-02-15T03:14:36;11.50;;;3.67;;
71947;SDS011;63257;55.082;38.772;2024-02-15T03:17:02;10.20;;;3.50;;
71947;SDS011;63257;55.082;38.772;2024-02-15T03:19:28;10.75;;;3.78;;
71947;SDS011;63257;55.082;38.772;2024-02-15T03:21:56;12.40;;;4.22;;
71947;SDS011;63257;55.082;38.772;2024-02-15T03:24:22;12.87;;;4.07;;
71947;SDS011;63257;55.082;38.772;2024-02-15T03:26:48;10.73;;;3.65;;
71947;SDS011;63257;55.082;38.772;2024-02-15T03:29:14;12.25;;;3.90;;
71947;SDS011;63257;55.082;38.772;2024-02-15T03:31:40;14.43;;;4.40;;
71947;SDS011;63257;55.082;38.772;2024-02-15T03:34:06;10.13;;;3.35;;
71947;SDS011;63257;55.082;38.772;2024-02-15T03:36:32;12.43;;;4.00;;
71947;SDS011;63257;55.082;38.772;2024-02-15T03:38:59;12.23;;;4.60;;
71947;SDS011;63257;55.082;38.772;2024-02-15T03:41:26;12.80;;;4.43;;
71947;SDS011;63257;55.082;38.772;2024-02-15T03:43:58;14.07;;;4.22;;
71947;SDS011;63257;55.082;38.772;2024-02-15T03:46:25;9.50;;;3.75;;
71947;SDS011;63257;55.082;38.772;2024-02-15T03:48:53;10.75;;;4.18;;
71947;SDS011;63257;55.082;38.772;2024-02-15T03:51:19;10.07;;;3.95;;
71947;SDS011;63257;55.082;38.772;2024-02-15T03:53:46;12.13;;;3.97;;
71947;SDS011;63257;55.082;38.772;2024-02-15T03:56:14;12.32;;;3.63;;
71947;SDS011;63257;55.082;38.772;2024-02-15T03:58:40;15.23;;;4.40;;
71947;SDS011;63257;55.082;38.772;2024-02-15T04:01:05;10.30;;;3.63;;
71947;SDS011;63257;55.082;38.772;2024-02-15T04:03:32;9.93;;;3.13;;
71947;SDS011;63257;55.082;38.772;2024-02-15T04:05:59;9.40;;;3.80;;
71947;SDS011;63257;55.082;38.772;2024-02-15T04:08:27;8.10;;;3.20;;
71947;SDS011;63257;55.082;38.772;2024-02-15T04:10:53;9.10;;;3.83;;
71947;SDS011;63257;55.082;38.772;2024-02-15T04:13:19;11.73;;;3.70;;
71947;SDS011;63257;55.082;38.772;2024-02-15T04:15:45;8.23;;;3.13;;
71947;SDS011;63257;55.082;38.772;2024-02-15T04:18:13;13.18;;;3.95;;
71947;SDS011;63257;55.082;38.772;2024-02-15T04:20:40;11.13;;;4.43;;
71947;SDS011;63257;55.082;38.772;2024-02-15T04:23:11;11.97;;;4.10;;
71947;SDS011;63257;55.082;38.772;2024-02-15T04:25:37;11.55;;;3.97;;
71947;SDS011;63257;55.082;38.772;2024-02-15T04:28:04;16.10;;;3.97;;
71947;SDS011;63257;55.082;38.772;2024-02-15T04:30:32;9.10;;;3.20;;
71947;SDS011;63257;55.082;38.772;2024-02-15T04:32:59;13.38;;;4.03;;
71947;SDS011;63257;55.082;38.772;2024-02-15T04:35:25;12.95;;;4.00;;
71947;SDS011;63257;55.082;38.772;2024-02-15T04:37:53;10.20;;;4.30;;
71947;SDS011;63257;55.082;38.772;2024-02-15T04:40:19;11.27;;;3.90;;
71947;SDS011;63257;55.082;38.772;2024-02-15T04:42:45;10.77;;;4.47;;
71947;SDS011;63257;55.082;38.772;2024-02-15T04:45:13;10.63;;;4.47;;
71947;SDS011;63257;55.082;38.772;2024-02-15T04:47:54;13.02;;;3.75;;
71947;SDS011;63257;55.082;38.772;2024-02-15T04:50:22;11.68;;;4.57;;
71947;SDS011;63257;55.082;38.772;2024-02-15T04:52:48;10.60;;;3.70;;
71947;SDS011;63257;55.082;38.772;2024-02-15T04:55:15;12.48;;;4.25;;
71947;SDS011;63257;55.082;38.772;2024-02-15T04:57:43;10.88;;;3.42;;
71947;SDS011;63257;55.082;38.772;2024-02-15T05:00:09;12.80;;;4.13;;
71947;SDS011;63257;55.082;38.772;2024-02-15T05:02:37;26.42;;;8.50;;
71947;SDS011;63257;55.082;38.772;2024-02-15T05:05:06;18.02;;;4.68;;
71947;SDS011;63257;55.082;38.772;2024-02-15T05:07:34;12.00;;;3.85;;
71947;SDS011;63257;55.082;38.772;2024-02-15T05:10:05;14.02;;;4.40;;
71947;SDS011;63257;55.082;38.772;2024-02-15T05:12:32;13.40;;;4.50;;
71947;SDS011;63257;55.082;38.772;2024-02-15T05:14:59;15.85;;;4.80;;
71947;SDS011;63257;55.082;38.772;2024-02-15T05:17:25;15.40;;;4.43;;
71947;SDS011;63257;55.082;38.772;2024-02-15T05:19:54;11.88;;;4.85;;
71947;SDS011;63257;55.082;38.772;2024-02-15T05:22:25;15.20;;;5.13;;
71947;SDS011;63257;55.082;38.772;2024-02-15T05:24:54;11.00;;;4.27;;
71947;SDS011;63257;55.082;38.772;2024-02-15T05:27:20;14.80;;;4.95;;
71947;SDS011;63257;55.082;38.772;2024-02-15T05:29:46;19.70;;;5.03;;
71947;SDS011;63257;55.082;38.772;2024-02-15T05:32:12;12.75;;;4.30;;
71947;SDS011;63257;55.082;38.772;2024-02-15T05:34:40;18.02;;;5.97;;
71947;SDS011;63257;55.082;38.772;2024-02-15T05:37:05;15.00;;;4.70;;
71947;SDS011;63257;55.082;38.772;2024-02-15T05:39:36;15.73;;;5.43;;
71947;SDS011;63257;55.082;38.772;2024-02-15T05:42:01;12.40;;;3.83;;
71947;SDS011;63257;55.082;38.772;2024-02-15T05:44:27;12.80;;;4.68;;
71947;SDS011;63257;55.082;38.772;2024-02-15T05:46:53;15.47;;;5.43;;
71947;SDS011;63257;55.082;38.772;2024-02-15T05:49:19;12.63;;;4.17;;
71947;SDS011;63257;55.082;38.772;2024-02-15T05:51:45;12.95;;;4.45;;
71947;SDS011;63257;55.082;38.772;2024-02-15T05:54:12;12.93;;;4.68;;
71947;SDS011;63257;55.082;38.772;2024-02-15T05:56:38;15.33;;;5.30;;
71947;SDS011;63257;55.082;38.772;2024-02-15T05:59:04;13.77;;;4.57;;
71947;SDS011;63257;55.082;38.772;2024-02-15T06:01:36;12.00;;;4.10;;
71947;SDS011;63257;55.082;38.772;2024-02-15T06:04:02;12.73;;;4.07;;
71947;SDS011;63257;55.082;38.772;2024-02-15T06:06:30;16.95;;;5.28;;
71947;SDS011;63257;55.082;38.772;2024-02-15T06:08:56;12.75;;;4.80;;
71947;SDS011;63257;55.082;38.772;2024-02-15T06:11:25;11.02;;;4.88;;
71947;SDS011;63257;55.082;38.772;2024-02-15T06:13:50;17.73;;;5.57;;
71947;SDS011;63257;55.082;38.772;2024-02-15T06:16:16;12.97;;;4.03;;
71947;SDS011;63257;55.082;38.772;2024-02-15T06:18:42;12.90;;;5.20;;
71947;SDS011;63257;55.082;38.772;2024-02-15T06:21:08;14.70;;;5.32;;
71947;SDS011;63257;55.082;38.772;2024-02-15T06:23:34;15.70;;;5.32;;
71947;SDS011;63257;55.082;38.772;2024-02-15T06:26:01;12.98;;;5.00;;
71947;SDS011;63257;55.082;38.772;2024-02-15T06:28:28;14.10;;;5.53;;
71947;SDS011;63257;55.082;38.772;2024-02-15T06:31:13;16.77;;;5.22;;
71947;SDS011;63257;55.082;38.772;2024-02-15T06:33:57;13.77;;;5.28;;
71947;SDS011;63257;55.082;38.772;2024-02-15T06:36:49;15.13;;;5.37;;
71947;SDS011;63257;55.082;38.772;2024-02-15T06:39:34;11.77;;;4.82;;
71947;SDS011;63257;55.082;38.772;2024-02-15T06:42:06;18.05;;;5.03;;
71947;SDS011;63257;55.082;38.772;2024-02-15T06:44:36;13.80;;;5.00;;
71947;SDS011;63257;55.082;38.772;2024-02-15T06:47:05;15.20;;;5.95;;
71947;SDS011;63257;55.082;38.772;2024-02-15T06:49:32;13.80;;;4.63;;
71947;SDS011;63257;55.082;38.772;2024-02-15T06:51:58;15.63;;;5.70;;
71947;SDS011;63257;55.082;38.772;2024-02-15T06:54:27;16.20;;;5.13;;
71947;SDS011;63257;55.082;38.772;2024-02-15T06:56:53;17.17;;;6.25;;
71947;SDS011;63257;55.082;38.772;2024-02-15T06:59:22;12.82;;;5.25;;
71947;SDS011;63257;55.082;38.772;2024-02-15T07:01:49;11.23;;;4.80;;
71947;SDS011;63257;55.082;38.772;2024-02-15T07:04:18;13.13;;;4.75;;
71947;SDS011;63257;55.082;38.772;2024-02-15T07:06:45;19.77;;;6.15;;
71947;SDS011;63257;55.082;38.772;2024-02-15T07:09:13;17.53;;;6.17;;
71947;SDS011;63257;55.082;38.772;2024-02-15T07:11:45;17.70;;;6.18;;
71947;SDS011;63257;55.082;38.772;2024-02-15T07:14:14;15.48;;;5.82;;
71947;SDS011;63257;55.082;38.772;2024-02-15T07:16:45;14.43;;;5.55;;
71947;SDS011;63257;55.082;38.772;2024-02-15T07:19:11;13.75;;;4.78;;
71947;SDS011;63257;55.082;38.772;2024-02-15T07:21:38;13.48;;;5.43;;
71947;SDS011;63257;55.082;38.772;2024-02-15T07:24:04;13.52;;;5.60;;
71947;SDS011;63257;55.082;38.772;2024-02-15T07:26:31;16.37;;;5.77;;
71947;SDS011;63257;55.082;38.772;2024-02-15T07:28:56;15.23;;;5.63;;
71947;SDS011;63257;55.082;38.772;2024-02-15T07:31:22;18.53;;;5.60;;
71947;SDS011;63257;55.082;38.772;2024-02-15T07:33:53;14.10;;;5.20;;
71947;SDS011;63257;55.082;38.772;2024-02-15T07:36:19;18.45;;;5.57;;
71947;SDS011;63257;55.082;38.772;2024-02-15T07:38:47;15.63;;;5.78;;
71947;SDS011;63257;55.082;38.772;2024-02-15T07:41:14;17.50;;;5.57;;
71947;SDS011;63257;55.082;38.772;2024-02-15T07:43:41;15.18;;;5.13;;
71947;SDS011;63257;55.082;38.772;2024-02-15T07:46:06;16.10;;;5.30;;
71947;SDS011;63257;55.082;38.772;2024-02-15T07:48:32;17.00;;;5.03;;
71947;SDS011;63257;55.082;38.772;2024-02-15T07:50:58;13.53;;;5.00;;
71947;SDS011;63257;55.082;38.772;2024-02-15T07:53:24;12.32;;;4.53;;
71947;SDS011;63257;55.082;38.772;2024-02-15T07:55:50;16.80;;;5.70;;
71947;SDS011;63257;55.082;38.772;2024-02-15T07:58:16;12.93;;;4.90;;
71947;SDS011;63257;55.082;38.772;2024-02-15T08:00:44;15.70;;;6.10;;
71947;SDS011;63257;55.082;38.772;2024-02-15T08:03:11;14.48;;;5.85;;
71947;SDS011;63257;55.082;38.772;2024-02-15T08:05:37;13.23;;;4.80;;
71947;SDS011;63257;55.082;38.772;2024-02-15T08:08:03;14.25;;;5.30;;
71947;SDS011;63257;55.082;38.772;2024-02-15T08:10:29;12.57;;;4.97;;
71947;SDS011;63257;55.082;38.772;2024-02-15T08:12:55;19.05;;;6.45;;
71947;SDS011;63257;55.082;38.772;2024-02-15T08:15:23;17.67;;;5.60;;
71947;SDS011;63257;55.082;38.772;2024-02-15T08:17:49;15.63;;;5.53;;
71947;SDS011;63257;55.082;38.772;2024-02-15T08:20:15;17.00;;;5.32;;
71947;SDS011;63257;55.082;38.772;2024-02-15T08:22:46;17.00;;;5.97;;
71947;SDS011;63257;55.082;38.772;2024-02-15T08:25:13;17.00;;;6.07;;
71947;SDS011;63257;55.082;38.772;2024-02-15T08:27:42;21.52;;;6.88;;
71947;SDS011;63257;55.082;38.772;2024-02-15T08:30:10;16.42;;;6.20;;
71947;SDS011;63257;55.082;38.772;2024-02-15T08:32:37;19.97;;;6.27;;
71947;SDS011;63257;55.082;38.772;2024-02-15T08:35:05;18.02;;;5.97;;
71947;SDS011;63257;55.082;38.772;2024-02-15T08:37:32;16.98;;;5.88;;
71947;SDS011;63257;55.082;38.772;2024-02-15T08:40:00;16.30;;;5.97;;
71947;SDS011;63257;55.082;38.772;2024-02-15T08:42:28;14.68;;;5.68;;
71947;SDS011;63257;55.082;38.772;2024-02-15T08:44:53;17.10;;;5.53;;
71947;SDS011;63257;55.082;38.772;2024-02-15T08:47:20;18.63;;;5.60;;
71947;SDS011;63257;55.082;38.772;2024-02-15T08:49:46;18.27;;;6.50;;
71947;SDS011;63257;55.082;38.772;2024-02-15T08:52:12;17.10;;;5.80;;
71947;SDS011;63257;55.082;38.772;2024-02-15T08:54:38;16.55;;;6.05;;
71947;SDS011;63257;55.082;38.772;2024-02-15T08:57:04;16.70;;;5.40;;
71947;SDS011;63257;55.082;38.772;2024-02-15T08:59:31;16.02;;;5.72;;
71947;SDS011;63257;55.082;38.772;2024-02-15T09:01:57;18.20;;;6.10;;
71947;SDS011;63257;55.082;38.772;2024-02-15T09:04:22;16.75;;;5.57;;
71947;SDS011;63257;55.082;38.772;2024-02-15T09:06:52;14.45;;;5.68;;
71947;SDS011;63257;55.082;38.772;2024-02-15T09:09:18;15.80;;;6.40;;
71947;SDS011;63257;55.082;38.772;2024-02-15T09:11:44;14.50;;;5.83;;
71947;SDS011;63257;55.082;38.772;2024-02-15T09:14:09;17.45;;;6.35;;
71947;SDS011;63257;55.082;38.772;2024-02-15T09:16:35;20.57;;;6.33;;
71947;SDS011;63257;55.082;38.772;2024-02-15T09:19:01;18.60;;;6.32;;
71947;SDS011;63257;55.082;38.772;2024-02-15T09:21:27;15.13;;;5.80;;
71947;SDS011;63257;55.082;38.772;2024-02-15T09:23:56;17.67;;;6.30;;
71947;SDS011;63257;55.082;38.772;2024-02-15T09:26:22;17.13;;;5.53;;
71947;SDS011;63257;55.082;38.772;2024-02-15T09:28:47;16.20;;;6.13;;
71947;SDS011;63257;55.082;38.772;2024-02-15T09:31:13;17.15;;;6.05;;
71947;SDS011;63257;55.082;38.772;2024-02-15T09:33:39;13.60;;;4.88;;
71947;SDS011;63257;55.082;38.772;2024-02-15T09:36:05;19.77;;;6.22;;
71947;SDS011;63257;55.082;38.772;2024-02-15T09:38:31;15.43;;;5.90;;
71947;SDS011;63257;55.082;38.772;2024-02-15T09:40:57;16.30;;;5.68;;
71947;SDS011;63257;55.082;38.772;2024-02-15T09:43:23;15.30;;;6.33;;
71947;SDS011;63257;55.082;38.772;2024-02-15T09:45:54;18.40;;;5.55;;
71947;SDS011;63257;55.082;38.772;2024-02-15T09:48:20;14.90;;;5.97;;
71947;SDS011;63257;55.082;38.772;2024-02-15T09:50:50;17.83;;;6.00;;
71947;SDS011;63257;55.082;38.772;2024-02-15T09:53:21;16.73;;;5.90;;
71947;SDS011;63257;55.082;38.772;2024-02-15T09:55:56;18.10;;;6.25;;
71947;SDS011;63257;55.082;38.772;2024-02-15T09:58:29;13.03;;;5.43;;
71947;SDS011;63257;55.082;38.772;2024-02-15T10:01:00;17.98;;;5.65;;
71947;SDS011;63257;55.082;38.772;2024-02-15T10:03:31;15.90;;;5.72;;
71947;SDS011;63257;55.082;38.772;2024-02-15T10:05:58;14.73;;;6.27;;
71947;SDS011;63257;55.082;38.772;2024-02-15T10:08:23;15.80;;;5.68;;
71947;SDS011;63257;55.082;38.772;2024-02-15T10:11:04;20.25;;;5.72;;
71947;SDS011;63257;55.082;38.772;2024-02-15T10:13:32;14.00;;;5.72;;
71947;SDS011;63257;55.082;38.772;2024-02-15T10:15:57;18.20;;;5.85;;
71947;SDS011;63257;55.082;38.772;2024-02-15T10:18:23;15.83;;;5.53;;
71947;SDS011;63257;55.082;38.772;2024-02-15T10:20:58;14.55;;;5.68;;
71947;SDS011;63257;55.082;38.772;2024-02-15T10:23:24;15.30;;;6.03;;
71947;SDS011;63257;55.082;38.772;2024-02-15T10:25:50;17.35;;;6.07;;
71947;SDS011;63257;55.082;38.772;2024-02-15T10:28:22;12.97;;;5.30;;
71947;SDS011;63257;55.082;38.772;2024-02-15T10:30:52;16.13;;;5.97;;
71947;SDS011;63257;55.082;38.772;2024-02-15T10:33:19;11.07;;;4.28;;
71947;SDS011;63257;55.082;38.772;2024-02-15T10:35:53;14.87;;;5.70;;
71947;SDS011;63257;55.082;38.772;2024-02-15T10:38:39;14.80;;;5.10;;
71947;SDS011;63257;55.082;38.772;2024-02-15T10:41:06;13.60;;;5.50;;
71947;SDS011;63257;55.082;38.772;2024-02-15T10:43:33;14.33;;;5.63;;
71947;SDS011;63257;55.082;38.772;2024-02-15T10:46:00;17.20;;;5.65;;
71947;SDS011;63257;55.082;38.772;2024-02-15T10:48:26;17.38;;;5.75;;
71947;SDS011;63257;55.082;38.772;2024-02-15T10:51:02;17.30;;;5.93;;
71947;SDS011;63257;55.082;38.772;2024-02-15T10:53:30;14.73;;;5.57;;
71947;SDS011;63257;55.082;38.772;2024-02-15T10:58:56;13.60;;;5.20;;
71947;SDS011;63257;55.082;38.772;2024-02-15T11:01:28;14.07;;;5.55;;
71947;SDS011;63257;55.082;38.772;2024-02-15T11:03:57;17.45;;;6.40;;
71947;SDS011;63257;55.082;38.772;2024-02-15T11:06:28;16.05;;;6.78;;
71947;SDS011;63257;55.082;38.772;2024-02-15T11:08:58;15.87;;;5.70;;
71947;SDS011;63257;55.082;38.772;2024-02-15T11:11:26;17.38;;;6.25;;
71947;SDS011;63257;55.082;38.772;2024-02-15T11:17:00;19.40;;;6.67;;
71947;SDS011;63257;55.082;38.772;2024-02-15T11:21:58;13.85;;;5.32;;
71947;SDS011;63257;55.082;38.772;2024-02-15T11:24:27;24.83;;;6.80;;
71947;SDS011;63257;55.082;38.772;2024-02-15T11:26:58;17.13;;;7.23;;
71947;SDS011;63257;55.082;38.772;2024-02-15T11:35:18;14.75;;;5.45;;
71947;SDS011;63257;55.082;38.772;2024-02-15T11:40:25;17.80;;;6.32;;
71947;SDS011;63257;55.082;38.772;2024-02-15T11:42:58;18.35;;;6.53;;
71947;SDS011;63257;55.082;38.772;2024-02-15T11:45:29;11.93;;;5.40;;
71947;SDS011;63257;55.082;38.772;2024-02-15T11:48:02;14.82;;;5.50;;
71947;SDS011;63257;55.082;38.772;2024-02-15T11:50:34;13.35;;;5.78;;
71947;SDS011;63257;55.082;38.772;2024-02-15T11:53:03;17.27;;;6.00;;
71947;SDS011;63257;55.082;38.772;2024-02-15T11:55:34;14.85;;;5.80;;
71947;SDS011;63257;55.082;38.772;2024-02-15T11:58:01;18.23;;;9.60;;
71947;SDS011;63257;55.082;38.772;2024-02-15T12:00:31;17.42;;;6.53;;
71947;SDS011;63257;55.082;38.772;2024-02-15T12:03:16;16.23;;;6.65;;
71947;SDS011;63257;55.082;38.772;2024-02-15T12:06:01;15.93;;;6.65;;
71947;SDS011;63257;55.082;38.772;2024-02-15T12:08:46;22.70;;;6.10;;
71947;SDS011;63257;55.082;38.772;2024-02-15T12:11:31;17.87;;;6.07;;
71947;SDS011;63257;55.082;38.772;2024-02-15T12:14:16;21.10;;;5.88;;
71947;SDS011;63257;55.082;38.772;2024-02-15T12:17:03;15.38;;;5.65;;
71947;SDS011;63257;55.082;38.772;2024-02-15T12:19:49;15.83;;;5.87;;
71947;SDS011;63257;55.082;38.772;2024-02-15T12:22:17;16.15;;;5.93;;
71947;SDS011;63257;55.082;38.772;2024-02-15T12:24:59;18.30;;;6.53;;
71947;SDS011;63257;55.082;38.772;2024-02-15T12:27:26;15.30;;;5.45;;
71947;SDS011;63257;55.082;38.772;2024-02-15T12:29:58;26.95;;;10.95;;
71947;SDS011;63257;55.082;38.772;2024-02-15T12:32:26;20.58;;;8.18;;
71947;SDS011;63257;55.082;38.772;2024-02-15T12:34:53;15.85;;;6.78;;
71947;SDS011;63257;55.082;38.772;2024-02-15T12:37:36;16.27;;;6.00;;
71947;SDS011;63257;55.082;38.772;2024-02-15T12:40:17;20.43;;;6.43;;
71947;SDS011;63257;55.082;38.772;2024-02-15T12:42:44;17.08;;;6.38;;
71947;SDS011;63257;55.082;38.772;2024-02-15T12:45:17;19.05;;;6.55;;
71947;SDS011;63257;55.082;38.772;2024-02-15T12:47:47;17.63;;;6.70;;
71947;SDS011;63257;55.082;38.772;2024-02-15T12:50:20;17.77;;;6.15;;
71947;SDS011;63257;55.082;38.772;2024-02-15T12:52:50;16.85;;;6.00;;
71947;SDS011;63257;55.082;38.772;2024-02-15T12:55:20;16.88;;;6.43;;
71947;SDS011;63257;55.082;38.772;2024-02-15T12:57:50;16.53;;;6.37;;
71947;SDS011;63257;55.082;38.772;2024-02-15T13:00:18;16.98;;;6.30;;
71947;SDS011;63257;55.082;38.772;2024-02-15T13:02:46;18.83;;;6.57;;
71947;SDS011;63257;55.082;38.772;2024-02-15T13:05:19;19.90;;;6.63;;
71947;SDS011;63257;55.082;38.772;2024-02-15T13:07:47;20.80;;;7.65;;
71947;SDS011;63257;55.082;38.772;2024-02-15T13:10:14;15.32;;;6.20;;
71947;SDS011;63257;55.082;38.772;2024-02-15T13:12:43;16.90;;;6.50;;
71947;SDS011;63257;55.082;38.772;2024-02-15T13:15:11;16.35;;;6.30;;
71947;SDS011;63257;55.082;38.772;2024-02-15T13:17:46;17.17;;;6.65;;
71947;SDS011;63257;55.082;38.772;2024-02-15T13:20:17;17.67;;;6.72;;
71947;SDS011;63257;55.082;38.772;2024-02-15T13:22:45;18.73;;;6.70;;
71947;SDS011;63257;55.082;38.772;2024-02-15T13:25:14;17.15;;;6.75;;
71947;SDS011;63257;55.082;38.772;2024-02-15T13:27:46;19.42;;;6.90;;
71947;SDS011;63257;55.082;38.772;2024-02-15T13:30:12;19.37;;;6.90;;
71947;SDS011;63257;55.082;38.772;2024-02-15T13:32:39;16.23;;;6.25;;
71947;SDS011;63257;55.082;38.772;2024-02-15T13:35:08;18.52;;;7.13;;
71947;SDS011;63257;55.082;38.772;2024-02-15T13:37:48;15.75;;;6.40;;
71947;SDS011;63257;55.082;38.772;2024-02-15T13:40:18;22.20;;;5.93;;
71947;SDS011;63257;55.082;38.772;2024-02-15T13:42:45;17.02;;;6.47;;
71947;SDS011;63257;55.082;38.772;2024-02-15T13:45:20;14.57;;;5.75;;
71947;SDS011;63257;55.082;38.772;2024-02-15T13:47:53;18.53;;;6.57;;
71947;SDS011;63257;55.082;38.772;2024-02-15T13:50:18;19.75;;;6.90;;
71947;SDS011;63257;55.082;38.772;2024-02-15T13:52:45;18.02;;;6.60;;
71947;SDS011;63257;55.082;38.772;2024-02-15T13:55:14;18.63;;;6.73;;
71947;SDS011;63257;55.082;38.772;2024-02-15T13:57:43;17.52;;;6.22;;
71947;SDS011;63257;55.082;38.772;2024-02-15T14:00:12;17.30;;;6.13;;
71947;SDS011;63257;55.082;38.772;2024-02-15T14:02:39;16.55;;;6.82;;
71947;SDS011;63257;55.082;38.772;2024-02-15T14:05:06;17.05;;;6.65;;
71947;SDS011;63257;55.082;38.772;2024-02-15T14:07:34;24.27;;;7.22;;
71947;SDS011;63257;55.082;38.772;2024-02-15T14:10:04;18.85;;;6.97;;
71947;SDS011;63257;55.082;38.772;2024-02-15T14:12:31;16.67;;;7.10;;
71947;SDS011;63257;55.082;38.772;2024-02-15T14:14:57;20.63;;;6.90;;
71947;SDS011;63257;55.082;38.772;2024-02-15T14:17:23;40.50;;;14.83;;
71947;SDS011;63257;55.082;38.772;2024-02-15T14:19:49;62.20;;;22.02;;
71947;SDS011;63257;55.082;38.772;2024-02-15T14:22:15;18.83;;;7.40;;
71947;SDS011;63257;55.082;38.772;2024-02-15T14:24:41;19.13;;;7.40;;
71947;SDS011;63257;55.082;38.772;2024-02-15T14:27:09;19.13;;;7.05;;
71947;SDS011;63257;55.082;38.772;2024-02-15T14:29:40;18.17;;;6.97;;
71947;SDS011;63257;55.082;38.772;2024-02-15T14:32:25;15.43;;;5.70;;
71947;SDS011;63257;55.082;38.772;2024-02-15T14:35:09;19.85;;;6.93;;
71947;SDS011;63257;55.082;38.772;2024-02-15T14:37:36;19.10;;;6.78;;
71947;SDS011;63257;55.082;38.772;2024-02-15T14:40:02;18.90;;;6.80;;
71947;SDS011;63257;55.082;38.772;2024-02-15T14:42:29;16.85;;;6.50;;
71947;SDS011;63257;55.082;38.772;2024-02-15T14:44:55;18.10;;;6.97;;
71947;SDS011;63257;55.082;38.772;2024-02-15T14:47:21;20.60;;;6.50;;
71947;SDS011;63257;55.082;38.772;2024-02-15T14:49:47;15.77;;;6.38;;
71947;SDS011;63257;55.082;38.772;2024-02-15T14:52:13;14.80;;;6.47;;